Etusivu
METAR-TAF:

METAR-TAF

Lentoasemat :

Shantou, Kiina

Leveyspiiri: 23-24N, Pituuspiiri: 116-41E, korkeus merenpinnasta: 3 m

Tämänhetkinen sää

Tämä raportti tehtiin 18 minuuttia sitten, kello 17.00 UTC
Tuuli 4 kn idästä/koillisesta
Lämpötila 16°C
Kosteus 94%
Ilmanpaine 1018 hPa
Näkyvyys: 3500 m
Hajanaisia pilviä 1000 ft:n korkeudessa
Hajonneita pilviä 1900 ft:n korkeudessa
heikkoa sadetta, utua

METAR: ZGOW 281700Z 06002MPS 3500 -RA BR SCT010 BKN019 16/15 Q1018 BECMG AT1730 BKN010 OVC023

Aika: 01:18 (17:18 UTC)

Sääennuste

Tämä raportti tehtiin 8 tuntia ja 14 minuuttia sitten, kello 09.04 UTC
Ennuste voimassa 28. päivästä klo 12 UTC - 29. päivään klo 12 UTC
Tuuli 6 kn idästä/kaakosta
Näkyvyys: 5000 m
Muutamia pilviä 2000 ft:n korkeudessa
Hajonneita pilviä 4000 ft:n korkeudessa
utua,

TAF: ZGOW 280904Z 2812/2912 12003MPS 5000 BR FEW020 BKN040 TX21/2906Z TN15/2822Z

Säähavainnot ja -ennusteet yli 4000 lentoasemalta (METAR- ja TAF-raportit).

Käytössä olevat sääasemat on merkitty karttaan keltaisilla ja punaisilla pisteillä.

Aseta hiiri pisteen päälle nähdäksesi sääaseman nimen.

Klikkaa sitten nähdäksesi säähavainnot ja -ennusteet.

Kartan vaihtaminen: klikkaa mustalla rastilla varustettuja vihreitä pisteitä, niin voit zoomata sisään; viivalla varustettua vihreää pistettä, niin voit zoomata ulos tai vihreitä nuolia, niin pääset viereisille kartoille.


METAR-TAF: